Aeroporto :
LOGIN :

Iscrizione | Disclaimer

   EN    FR    IT 

 










Sommario :    VFR   VFR Marginale   IFR   IFR Intensivo   IFR Molto Intensivo
Visibilità : 
Base nubi : 
>= 8 km
>= 3000ft
5 / 8 km
1000 / 3000 ft
1500m / 5 km
500 / 1000 ft
800 / 1500m
200 / 500 ft
< 800m
< 200 ft
Simboli :   Temporali  Nebbia  Neve Forte  Precipitazioni Forti  Vento > 20 kt
SIGMETs :   Varie  Temporali  Ghiacco  Turbolenza  Onda orograficha  Ceneri Vulcaniche






- Altitudine del aeroporto : 335 ft
- Codice IATA : BEG


LYBE - Belgrade Nikola Tesla

ULTIMO METAR :
  • 180300Z 18005KT 6000 NSC 05/02 Q1021 NOSIG

METARs OBSOLETI :
  • 180230Z 21005KT 6000 NSC 05/02 Q1021 NOSIG
  • 180200Z 17004KT 6000 NSC 05/02 Q1021 NOSIG
  • 180130Z 19003KT 140V240 8000 NSC 05/02 Q1021 NOSIG
  • 180100Z 25006KT 8000 NSC 04/02 Q1020 NOSIG
  • 180030Z 25007KT 7000 NSC 04/02 Q1020 NOSIG

TAF TAF LYBE
Valido dal 18 a 00 ore il 19 a 00 ore UTC


172300Z 1800/1824 20004KT 7000 NSC TX15/1813Z TN03/1806Z
BECMG 1808/1810 31012KT



MetMap, La meteo Aeronautica in un colpo d'occhio ! - Copyright ORBIFLY Dicembre 2007 - Disclaimer

ORBIFLY MET'MAP TEAM :

Programmazione e sviluppo : Alexandra Zaïnal
Concezione : Baudouin d'Aumeries
Aiuto per la programmazione : Marc-Olivier Méhu
Supporto tecnico e logistico : Manuel Goepfert
Aiuto per la traduzione : Arnaldo La Scala

Contatto : metmap@orbifly.com




FONTI E CREDITI :

   NOAA